Date,TemperatureHighF,TemperatureAvgF,TemperatureLowF,DewpointHighF,DewpointAvgF,DewpointLowF,HumidityHigh,HumidityAvg,HumidityLow,PressureMaxIn,PressureMinIn,WindSpeedMaxMPH,WindSpeedAvgMPH,GustSpeedMaxMPH,PrecipitationSumIn
2013-1-1,52.0,48.5,43.2,47.9,41.8,31.7,90,78,56,30.01,29.82,5,1,5,0.38
2013-1-2,55.4,50.7,47.3,47.8,44.9,42.1,91,81,64,30.75,29.76,7,1,7,0.08
2013-1-3,47.5,43.1,30.6,43.2,38.6,26.6,87,84,77,30.16,29.96,5,1,5,0.00
2013-1-4,54.7,36.9,25.9,34.0,26.0,21.2,86,68,29,30.22,30.09,10,1,10,0.01
2013-1-5,51.1,37.2,23.4,36.1,25.4,17.6,82,65,34,30.26,30.11,6,1,6,0.00
2013-1-6,55.9,45.2,31.5,41.3,35.9,26.3,83,70,54,30.11,29.92,10,2,10,0.01
2013-1-7,59.4,38.6,26.1,33.3,26.4,20.8,85,65,32,30.28,30.08,7,1,7,0.00
2013-1-8,54.0,41.0,26.4,39.6,31.5,20.7,86,70,53,30.32,30.22,6,1,6,0.00
2013-1-9,68.4,56.2,48.9,51.9,45.8,39.0,82,69,55,30.32,30.24,5,0,5,0.00
2013-1-10,72.9,58.2,45.5,53.3,48.4,41.6,87,71,48,30.34,30.20,8,1,8,0.02
2013-1-11,58.1,53.8,52.2,53.4,50.0,48.6,88,87,84,30.20,30.03,8,1,8,0.38
2013-1-12,72.5,59.5,51.8,62.8,53.8,47.8,89,82,62,30.05,29.97,8,1,8,0.01
2013-1-13,71.8,60.0,51.6,60.6,53.8,48.1,88,80,65,30.02,29.93,8,1,8,0.00
2013-1-14,69.3,63.3,55.6,63.5,58.8,51.5,88,85,79,30.00,29.92,7,1,7,0.22
2013-1-15,62.6,55.7,46.9,58.5,52.0,11.5,88,87,84,30.01,29.90,9,1,9,0.18
2013-1-16,52.7,49.4,45.7,49.6,46.2,42.6,90,89,87,29.91,29.83,7,1,7,0.40
2013-1-17,54.0,49.5,38.1,50.8,46.4,35.7,91,89,86,30.08,29.59,14,2,14,2.21
2013-1-18,58.8,41.4,30.4,35.6,26.3,16.6,91,61,22,30.36,30.08,9,1,9,0.00
2013-1-19,59.2,42.4,25.7,34.4,25.7,17.9,86,56,24,30.34,30.11,8,1,8,0.01
2013-1-20,49.5,49.5,49.5,27.9,27.9,27.9,43,43,43,30.11,30.11,0,0,0,0.01
2013-1-21,49.5,49.5,49.5,27.9,27.9,27.9,43,43,43,30.11,30.11,0,0,0,0.01
2013-1-22,50.4,42.9,28.9,27.9,17.3,6.2,65,37,21,30.11,29.92,12,2,12,0.01
2013-1-23,55.8,38.8,23.0,29.1,20.2,8.3,68,49,27,30.15,29.92,14,2,14,0.00
2013-1-24,58.8,47.7,30.0,34.9,21.1,-0.3,67,38,21,30.08,29.84,11,5,11,0.00
2013-1-25,32.7,28.9,25.9,25.7,13.6,1.7,78,55,31,30.10,29.72,5,1,5,0.00
2013-1-26,58.5,37.3,25.9,37.6,28.1,20.2,85,71,42,29.93,29.70,4,1,4,0.02
2013-1-27,50.4,39.1,28.9,32.6,28.5,24.6,85,67,45,30.15,29.93,9,1,9,0.00
2013-1-28,53.2,45.4,37.8,42.2,34.8,29.3,86,67,56,30.07,29.89,7,1,7,0.00
2013-1-29,73.2,54.5,37.0,57.6,46.9,32.1,87,76,54,29.89,29.64,7,1,7,0.00
2013-1-30,71.1,63.5,48.4,61.6,56.0,43.6,88,77,65,29.64,29.13,15,4,15,1.06
2013-1-31,50.7,43.6,37.0,43.6,24.4,15.7,83,49,25,30.38,29.26,19,7,19,0.01